Alm Zurich — V7NG2 — position and weather

sailwx.info

Track history (hours):
 
Tides and Currents Weather Stations Pressure Air Temp Water Temp Dewpoint Dewpoint Depression Visibility Wind Speed Wind Dir Waves Ship Positions

Alm Zurich

Last reported at 2015-Aug-31 16:33 UTC. Time now 2015-Sep-02 00:28 UTC.
Position N 03°20' E 100°24'.

Length 294 m; draft 12.4 m.

Type: Ship (hazmat cat D). MMSI: 538002956.

Date/timePositionNaut miles runAvg speedWind from/ knotsBaromVisibWave heightAir tempDewpointWater temp
2015-Aug-31 16:33N 03°20' E 100°24'2019.4
2015-Aug-31 15:33N 03°08' E 100°39'3718.8
2015-Aug-31 13:33N 02°45' E 101°09'1616.4
2015-Aug-31 12:33N 02°38' E 101°24'1615.9
2015-Aug-31 11:34N 02°29' E 101°37'13917.2
2015-Aug-31 03:30N 01°12' E 103°33'8 8.5
2015-Aug-31 02:33N 01°13' E 103°41'6 6.1
2015-Aug-31 01:33N 01°16' E 103°46'0 0.0
2015-Aug-31 00:33N 01°16' E 103°46'0 0.0
2015-Aug-30 23:33N 01°16' E 103°46'0 0.0
2015-Aug-30 22:33N 01°16' E 103°46'0 0.0
2015-Aug-30 21:33N 01°16' E 103°46'0 0.0
2015-Aug-30 20:33N 01°16' E 103°46'0 0.0
2015-Aug-30 19:27N 01°16' E 103°46'0 0.0
2015-Aug-30 18:33N 01°16' E 103°46'0 0.0
2015-Aug-30 17:33N 01°16' E 103°46'0 0.0
2015-Aug-30 16:33N 01°16' E 103°46'0 0.0
2015-Aug-30 15:27N 01°16' E 103°46'0 0.0
2015-Aug-30 14:33N 01°16' E 103°46'0 0.0
2015-Aug-30 13:33N 01°16' E 103°46'0 0.0
2015-Aug-30 12:33N 01°16' E 103°46'0 0.0
2015-Aug-30 10:32N 01°16' E 103°46'0 0.0
2015-Aug-30 09:32N 01°16' E 103°46'0 0.0
2015-Aug-30 08:23N 01°16' E 103°46'0 0.3
2015-Aug-30 07:33N 01°16' E 103°46'7 7.1
2015-Aug-30 06:33N 01°13' E 103°53'1110.9
2015-Aug-30 05:33N 01°16' E 104°03'  
2015-Aug-26 23:33N 22°08' E 114°26'2713.3
2015-Aug-26 21:29N 22°34' E 114°16'1 0.6
2015-Aug-26 20:25N 22°34' E 114°16'0 0.0
2015-Aug-26 18:25N 22°34' E 114°16'0 0.0
2015-Aug-26 17:25N 22°34' E 114°16'0 0.0
2015-Aug-26 15:25N 22°34' E 114°16'0 0.0
2015-Aug-26 14:31N 22°34' E 114°16'0 0.0
2015-Aug-26 13:25N 22°34' E 114°16'22213.8
2015-Aug-25 21:16N 23°42' E 118°06'1917.2
2015-Aug-25 20:09N 23°55' E 118°21'1717.3
2015-Aug-25 19:10N 24°06' E 118°36'1817.7
2015-Aug-25 18:09N 24°18' E 118°50'1818.0
2015-Aug-25 17:07N 24°30' E 119°05'1017.7
2015-Aug-25 16:33N 24°37' E 119°14'1817.5
2015-Aug-25 15:31N 24°48' E 119°29'8917.5
2015-Aug-25 10:28N 25°50' E 120°40'23417.9
2015-Aug-24 21:25N 29°22' E 122°31'4012.5
2015-Aug-24 18:15N 29°54' E 122°02'1 0.1
2015-Aug-23 22:28N 29°54' E 122°03'1010.2
2015-Aug-23 21:31N 29°50' E 122°13'2110.7
2015-Aug-23 19:33N 29°46' E 122°37'4112.2
2015-Aug-23 16:13N 30°26' E 122°48'1815.9
2015-Aug-23 15:05N 30°31' E 122°28'917.2
2015-Aug-23 14:33N 30°33' E 122°17'1312.9
2015-Aug-23 13:33N 30°37' E 122°03'1 0.7
2015-Aug-23 12:33N 30°38' E 122°03'0 0.0
2015-Aug-23 11:34N 30°38' E 122°03'0 0.0
2015-Aug-23 10:33N 30°38' E 122°03'0 0.0
2015-Aug-23 08:31N 30°38' E 122°03'0 0.0
2015-Aug-23 01:12N 30°38' E 122°03'1 1.7
2015-Aug-23 00:32N 30°37' E 122°04'8 6.8
2015-Aug-22 23:20N 30°34' E 122°12'16 8.7
2015-Aug-22 21:30N 30°31' E 122°31'  
Track history (hours):
 
Tides and Currents Weather Stations Pressure Air Temp Water Temp Dewpoint Dewpoint Depression Visibility Wind Speed Wind Dir Waves Ship Positions

Alm Zurich

Last reported at 2015-Aug-31 16:33 UTC. Time now 2015-Sep-02 00:28 UTC.
Position N 03°20' E 100°24'.

Length 294 m; draft 12.4 m.

Type: Ship (hazmat cat D). MMSI: 538002956.

Date/timePositionNaut miles runAvg speedWind from/ knotsBaromVisibWave heightAir tempDewpointWater temp
2015-Aug-31 16:33N 03°20' E 100°24'2019.4
2015-Aug-31 15:33N 03°08' E 100°39'3718.8
2015-Aug-31 13:33N 02°45' E 101°09'1616.4
2015-Aug-31 12:33N 02°38' E 101°24'1615.9
2015-Aug-31 11:34N 02°29' E 101°37'13917.2
2015-Aug-31 03:30N 01°12' E 103°33'8 8.5
2015-Aug-31 02:33N 01°13' E 103°41'6 6.1
2015-Aug-31 01:33N 01°16' E 103°46'0 0.0
2015-Aug-31 00:33N 01°16' E 103°46'0 0.0
2015-Aug-30 23:33N 01°16' E 103°46'0 0.0
2015-Aug-30 22:33N 01°16' E 103°46'0 0.0
2015-Aug-30 21:33N 01°16' E 103°46'0 0.0
2015-Aug-30 20:33N 01°16' E 103°46'0 0.0
2015-Aug-30 19:27N 01°16' E 103°46'0 0.0
2015-Aug-30 18:33N 01°16' E 103°46'0 0.0
2015-Aug-30 17:33N 01°16' E 103°46'0 0.0
2015-Aug-30 16:33N 01°16' E 103°46'0 0.0
2015-Aug-30 15:27N 01°16' E 103°46'0 0.0
2015-Aug-30 14:33N 01°16' E 103°46'0 0.0
2015-Aug-30 13:33N 01°16' E 103°46'0 0.0
2015-Aug-30 12:33N 01°16' E 103°46'0 0.0
2015-Aug-30 10:32N 01°16' E 103°46'0 0.0
2015-Aug-30 09:32N 01°16' E 103°46'0 0.0
2015-Aug-30 08:23N 01°16' E 103°46'0 0.3
2015-Aug-30 07:33N 01°16' E 103°46'7 7.1
2015-Aug-30 06:33N 01°13' E 103°53'1110.9
2015-Aug-30 05:33N 01°16' E 104°03'  
2015-Aug-26 23:33N 22°08' E 114°26'2713.3
2015-Aug-26 21:29N 22°34' E 114°16'1 0.6
2015-Aug-26 20:25N 22°34' E 114°16'0 0.0
2015-Aug-26 18:25N 22°34' E 114°16'0 0.0
2015-Aug-26 17:25N 22°34' E 114°16'0 0.0
2015-Aug-26 15:25N 22°34' E 114°16'0 0.0
2015-Aug-26 14:31N 22°34' E 114°16'0 0.0
2015-Aug-26 13:25N 22°34' E 114°16'22213.8
2015-Aug-25 21:16N 23°42' E 118°06'1917.2
2015-Aug-25 20:09N 23°55' E 118°21'1717.3
2015-Aug-25 19:10N 24°06' E 118°36'1817.7
2015-Aug-25 18:09N 24°18' E 118°50'1818.0
2015-Aug-25 17:07N 24°30' E 119°05'1017.7
2015-Aug-25 16:33N 24°37' E 119°14'1817.5
2015-Aug-25 15:31N 24°48' E 119°29'8917.5
2015-Aug-25 10:28N 25°50' E 120°40'23417.9
2015-Aug-24 21:25N 29°22' E 122°31'4012.5
2015-Aug-24 18:15N 29°54' E 122°02'1 0.1
2015-Aug-23 22:28N 29°54' E 122°03'1010.2
2015-Aug-23 21:31N 29°50' E 122°13'2110.7
2015-Aug-23 19:33N 29°46' E 122°37'4112.2
2015-Aug-23 16:13N 30°26' E 122°48'1815.9
2015-Aug-23 15:05N 30°31' E 122°28'917.2
2015-Aug-23 14:33N 30°33' E 122°17'1312.9
2015-Aug-23 13:33N 30°37' E 122°03'1 0.7
2015-Aug-23 12:33N 30°38' E 122°03'0 0.0
2015-Aug-23 11:34N 30°38' E 122°03'0 0.0
2015-Aug-23 10:33N 30°38' E 122°03'0 0.0
2015-Aug-23 08:31N 30°38' E 122°03'0 0.0
2015-Aug-23 01:12N 30°38' E 122°03'1 1.7
2015-Aug-23 00:32N 30°37' E 122°04'8 6.8
2015-Aug-22 23:20N 30°34' E 122°12'16 8.7
2015-Aug-22 21:30N 30°31' E 122°31'  

Dump ship's entire track history